sensor_id;sensor_type;location;lat;lon;timestamp;temperature;humidity
23703;DHT22;12030;50.376;8.762;2023-07-13T00:01:28;15.10;99.90
23703;DHT22;12030;50.376;8.762;2023-07-13T00:03:54;15.30;99.90
23703;DHT22;12030;50.376;8.762;2023-07-13T00:06:20;15.30;99.90
23703;DHT22;12030;50.376;8.762;2023-07-13T00:08:46;15.40;99.90
23703;DHT22;12030;50.376;8.762;2023-07-13T00:11:13;15.50;99.90
23703;DHT22;12030;50.376;8.762;2023-07-13T00:13:40;15.50;99.90
23703;DHT22;12030;50.376;8.762;2023-07-13T00:16:07;15.60;99.90
23703;DHT22;12030;50.376;8.762;2023-07-13T00:18:32;15.60;99.90
23703;DHT22;12030;50.376;8.762;2023-07-13T00:20:58;15.70;99.90
23703;DHT22;12030;50.376;8.762;2023-07-13T00:23:41;15.00;99.90
23703;DHT22;12030;50.376;8.762;2023-07-13T00:26:09;15.80;99.90
23703;DHT22;12030;50.376;8.762;2023-07-13T00:28:35;15.80;99.90
23703;DHT22;12030;50.376;8.762;2023-07-13T00:31:01;15.70;99.90
23703;DHT22;12030;50.376;8.762;2023-07-13T00:33:29;15.80;99.90
23703;DHT22;12030;50.376;8.762;2023-07-13T00:35:56;15.90;99.90
23703;DHT22;12030;50.376;8.762;2023-07-13T00:38:22;16.00;99.90
23703;DHT22;12030;50.376;8.762;2023-07-13T00:40:48;16.00;99.90
23703;DHT22;12030;50.376;8.762;2023-07-13T00:43:23;16.10;99.90
23703;DHT22;12030;50.376;8.762;2023-07-13T00:48:18;16.00;99.90
23703;DHT22;12030;50.376;8.762;2023-07-13T00:50:48;16.00;99.90
23703;DHT22;12030;50.376;8.762;2023-07-13T00:53:14;16.00;99.90
23703;DHT22;12030;50.376;8.762;2023-07-13T00:55:39;16.10;99.90
23703;DHT22;12030;50.376;8.762;2023-07-13T00:58:06;16.10;99.90
23703;DHT22;12030;50.376;8.762;2023-07-13T01:00:36;16.20;99.90
23703;DHT22;12030;50.376;8.762;2023-07-13T01:03:03;16.20;99.90
23703;DHT22;12030;50.376;8.762;2023-07-13T01:05:30;16.20;99.90
23703;DHT22;12030;50.376;8.762;2023-07-13T01:07:57;16.20;99.90
23703;DHT22;12030;50.376;8.762;2023-07-13T01:10:23;16.20;99.90
23703;DHT22;12030;50.376;8.762;2023-07-13T01:12:49;16.30;99.90
23703;DHT22;12030;50.376;8.762;2023-07-13T01:17:58;16.10;99.90
23703;DHT22;12030;50.376;8.762;2023-07-13T01:20:24;16.10;99.90
23703;DHT22;12030;50.376;8.762;2023-07-13T01:22:50;16.10;99.90
23703;DHT22;12030;50.376;8.762;2023-07-13T01:25:16;16.10;99.90
23703;DHT22;12030;50.376;8.762;2023-07-13T01:27:41;16.20;99.90
23703;DHT22;12030;50.376;8.762;2023-07-13T01:30:07;16.20;99.90
23703;DHT22;12030;50.376;8.762;2023-07-13T01:32:33;16.40;99.90
23703;DHT22;12030;50.376;8.762;2023-07-13T01:34:59;16.50;99.90
23703;DHT22;12030;50.376;8.762;2023-07-13T01:37:26;16.40;99.90
23703;DHT22;12030;50.376;8.762;2023-07-13T01:39:52;16.40;99.90
23703;DHT22;12030;50.376;8.762;2023-07-13T01:42:18;16.40;99.90
23703;DHT22;12030;50.376;8.762;2023-07-13T01:44:44;16.40;99.90
23703;DHT22;12030;50.376;8.762;2023-07-13T01:47:10;16.30;99.90
23703;DHT22;12030;50.376;8.762;2023-07-13T01:49:36;16.30;99.90
23703;DHT22;12030;50.376;8.762;2023-07-13T01:52:03;16.30;99.90
23703;DHT22;12030;50.376;8.762;2023-07-13T01:54:28;16.40;99.90
23703;DHT22;12030;50.376;8.762;2023-07-13T01:56:54;16.40;99.90
23703;DHT22;12030;50.376;8.762;2023-07-13T01:59:19;16.50;99.90
23703;DHT22;12030;50.376;8.762;2023-07-13T02:01:45;16.60;99.90
23703;DHT22;12030;50.376;8.762;2023-07-13T02:04:10;16.70;99.90
23703;DHT22;12030;50.376;8.762;2023-07-13T02:06:36;16.70;99.90
23703;DHT22;12030;50.376;8.762;2023-07-13T02:09:02;16.80;99.90
23703;DHT22;12030;50.376;8.762;2023-07-13T02:11:27;16.80;99.90
23703;DHT22;12030;50.376;8.762;2023-07-13T02:14:02;16.80;99.90
23703;DHT22;12030;50.376;8.762;2023-07-13T02:16:29;16.80;99.90
23703;DHT22;12030;50.376;8.762;2023-07-13T02:18:54;16.70;99.90
23703;DHT22;12030;50.376;8.762;2023-07-13T02:21:21;16.70;99.90
23703;DHT22;12030;50.376;8.762;2023-07-13T02:23:48;16.60;99.90
23703;DHT22;12030;50.376;8.762;2023-07-13T02:26:14;16.60;99.90
23703;DHT22;12030;50.376;8.762;2023-07-13T02:28:40;16.50;99.90
23703;DHT22;12030;50.376;8.762;2023-07-13T02:31:10;16.40;99.90
23703;DHT22;12030;50.376;8.762;2023-07-13T02:33:35;16.40;99.90
23703;DHT22;12030;50.376;8.762;2023-07-13T02:36:02;16.40;99.90
23703;DHT22;12030;50.376;8.762;2023-07-13T02:38:27;16.50;99.90
23703;DHT22;12030;50.376;8.762;2023-07-13T02:40:53;16.50;99.90
23703;DHT22;12030;50.376;8.762;2023-07-13T02:43:18;16.50;99.90
23703;DHT22;12030;50.376;8.762;2023-07-13T02:45:45;16.60;99.90
23703;DHT22;12030;50.376;8.762;2023-07-13T02:48:10;16.60;99.90
23703;DHT22;12030;50.376;8.762;2023-07-13T02:50:36;16.60;99.90
23703;DHT22;12030;50.376;8.762;2023-07-13T02:53:01;16.60;99.90
23703;DHT22;12030;50.376;8.762;2023-07-13T02:55:27;16.60;99.90
23703;DHT22;12030;50.376;8.762;2023-07-13T02:57:52;16.50;99.90
23703;DHT22;12030;50.376;8.762;2023-07-13T03:00:19;16.50;99.90
23703;DHT22;12030;50.376;8.762;2023-07-13T03:02:45;16.40;99.90
23703;DHT22;12030;50.376;8.762;2023-07-13T03:05:11;16.30;99.90
23703;DHT22;12030;50.376;8.762;2023-07-13T03:07:38;16.30;99.90
23703;DHT22;12030;50.376;8.762;2023-07-13T03:10:05;16.20;99.90
23703;DHT22;12030;50.376;8.762;2023-07-13T03:12:32;16.10;99.90
23703;DHT22;12030;50.376;8.762;2023-07-13T03:14:57;16.10;99.90
23703;DHT22;12030;50.376;8.762;2023-07-13T03:17:23;16.00;99.90
23703;DHT22;12030;50.376;8.762;2023-07-13T03:19:48;16.00;99.90
23703;DHT22;12030;50.376;8.762;2023-07-13T03:22:17;16.00;99.90
23703;DHT22;12030;50.376;8.762;2023-07-13T03:24:43;16.00;99.90
23703;DHT22;12030;50.376;8.762;2023-07-13T03:27:09;15.90;99.90
23703;DHT22;12030;50.376;8.762;2023-07-13T03:29:35;15.90;99.90
23703;DHT22;12030;50.376;8.762;2023-07-13T03:32:00;15.80;99.90
23703;DHT22;12030;50.376;8.762;2023-07-13T03:34:26;15.80;99.90
23703;DHT22;12030;50.376;8.762;2023-07-13T03:36:54;15.80;99.90
23703;DHT22;12030;50.376;8.762;2023-07-13T03:39:20;15.70;99.90
23703;DHT22;12030;50.376;8.762;2023-07-13T03:41:46;15.70;99.90
23703;DHT22;12030;50.376;8.762;2023-07-13T03:44:12;15.60;99.90
23703;DHT22;12030;50.376;8.762;2023-07-13T03:46:37;15.50;99.90
23703;DHT22;12030;50.376;8.762;2023-07-13T03:49:04;15.50;99.90
23703;DHT22;12030;50.376;8.762;2023-07-13T03:51:30;15.40;99.90
23703;DHT22;12030;50.376;8.762;2023-07-13T03:53:56;16.00;99.90
23703;DHT22;12030;50.376;8.762;2023-07-13T03:56:22;15.60;99.90
23703;DHT22;12030;50.376;8.762;2023-07-13T03:58:49;15.60;99.90
23703;DHT22;12030;50.376;8.762;2023-07-13T04:01:16;15.60;99.90
23703;DHT22;12030;50.376;8.762;2023-07-13T04:03:42;15.50;99.90
23703;DHT22;12030;50.376;8.762;2023-07-13T04:06:19;15.50;99.90
23703;DHT22;12030;50.376;8.762;2023-07-13T04:08:52;15.30;99.90
23703;DHT22;12030;50.376;8.762;2023-07-13T04:11:19;15.10;99.90
23703;DHT22;12030;50.376;8.762;2023-07-13T04:13:45;15.10;99.90
23703;DHT22;12030;50.376;8.762;2023-07-13T04:16:12;15.00;99.90
23703;DHT22;12030;50.376;8.762;2023-07-13T04:18:38;15.10;99.90
23703;DHT22;12030;50.376;8.762;2023-07-13T04:21:04;15.10;99.90
23703;DHT22;12030;50.376;8.762;2023-07-13T04:23:29;15.00;99.90
23703;DHT22;12030;50.376;8.762;2023-07-13T04:25:55;15.10;99.90
23703;DHT22;12030;50.376;8.762;2023-07-13T04:28:26;15.10;99.90
23703;DHT22;12030;50.376;8.762;2023-07-13T04:30:52;15.10;99.90
23703;DHT22;12030;50.376;8.762;2023-07-13T04:33:18;15.10;99.90
23703;DHT22;12030;50.376;8.762;2023-07-13T04:35:48;15.10;99.90
23703;DHT22;12030;50.376;8.762;2023-07-13T04:38:14;15.00;99.90
23703;DHT22;12030;50.376;8.762;2023-07-13T04:40:44;15.00;99.90
23703;DHT22;12030;50.376;8.762;2023-07-13T04:43:10;15.10;99.90
23703;DHT22;12030;50.376;8.762;2023-07-13T04:45:36;15.00;99.90
23703;DHT22;12030;50.376;8.762;2023-07-13T04:48:01;15.00;99.90
23703;DHT22;12030;50.376;8.762;2023-07-13T04:50:27;15.00;99.90
23703;DHT22;12030;50.376;8.762;2023-07-13T04:52:52;15.00;99.90
23703;DHT22;12030;50.376;8.762;2023-07-13T04:55:19;15.00;99.90
23703;DHT22;12030;50.376;8.762;2023-07-13T04:57:45;15.00;99.90
23703;DHT22;12030;50.376;8.762;2023-07-13T05:00:12;15.10;99.90
23703;DHT22;12030;50.376;8.762;2023-07-13T05:02:39;15.20;99.90
23703;DHT22;12030;50.376;8.762;2023-07-13T05:05:06;15.20;99.90
23703;DHT22;12030;50.376;8.762;2023-07-13T05:07:31;15.30;99.90
23703;DHT22;12030;50.376;8.762;2023-07-13T05:09:59;15.40;99.90
23703;DHT22;12030;50.376;8.762;2023-07-13T05:12:25;15.50;99.90
23703;DHT22;12030;50.376;8.762;2023-07-13T05:14:51;15.60;99.90
23703;DHT22;12030;50.376;8.762;2023-07-13T05:17:16;15.70;99.90
23703;DHT22;12030;50.376;8.762;2023-07-13T05:19:42;15.90;99.90
23703;DHT22;12030;50.376;8.762;2023-07-13T05:22:07;16.10;99.90
23703;DHT22;12030;50.376;8.762;2023-07-13T05:24:33;16.30;99.90
23703;DHT22;12030;50.376;8.762;2023-07-13T05:26:59;16.50;99.90
23703;DHT22;12030;50.376;8.762;2023-07-13T05:29:24;16.70;99.90
23703;DHT22;12030;50.376;8.762;2023-07-13T05:31:50;16.80;99.90
23703;DHT22;12030;50.376;8.762;2023-07-13T05:34:16;17.00;99.90
23703;DHT22;12030;50.376;8.762;2023-07-13T05:36:41;17.10;99.90
23703;DHT22;12030;50.376;8.762;2023-07-13T05:39:07;17.20;99.90
23703;DHT22;12030;50.376;8.762;2023-07-13T05:41:32;17.40;99.90
23703;DHT22;12030;50.376;8.762;2023-07-13T05:43:58;17.50;99.90
23703;DHT22;12030;50.376;8.762;2023-07-13T05:46:24;17.70;99.90
23703;DHT22;12030;50.376;8.762;2023-07-13T05:48:49;17.80;99.90
23703;DHT22;12030;50.376;8.762;2023-07-13T05:51:15;17.90;99.90
23703;DHT22;12030;50.376;8.762;2023-07-13T05:53:41;18.00;99.90
23703;DHT22;12030;50.376;8.762;2023-07-13T05:56:06;18.10;99.90
23703;DHT22;12030;50.376;8.762;2023-07-13T05:58:32;18.30;99.90
23703;DHT22;12030;50.376;8.762;2023-07-13T06:01:04;18.40;99.90
23703;DHT22;12030;50.376;8.762;2023-07-13T06:03:30;18.50;99.90
23703;DHT22;12030;50.376;8.762;2023-07-13T06:05:56;18.60;99.90
23703;DHT22;12030;50.376;8.762;2023-07-13T06:08:22;18.80;99.90
23703;DHT22;12030;50.376;8.762;2023-07-13T06:10:48;18.90;99.90
23703;DHT22;12030;50.376;8.762;2023-07-13T06:13:13;19.00;99.90
23703;DHT22;12030;50.376;8.762;2023-07-13T06:15:39;19.10;99.90
23703;DHT22;12030;50.376;8.762;2023-07-13T06:18:04;19.20;99.10
23703;DHT22;12030;50.376;8.762;2023-07-13T06:20:30;19.30;99.00
23703;DHT22;12030;50.376;8.762;2023-07-13T06:22:55;19.50;99.10
23703;DHT22;12030;50.376;8.762;2023-07-13T06:25:21;19.60;98.60
23703;DHT22;12030;50.376;8.762;2023-07-13T06:27:46;19.60;98.20
23703;DHT22;12030;50.376;8.762;2023-07-13T06:30:12;19.70;97.90
23703;DHT22;12030;50.376;8.762;2023-07-13T06:32:38;19.80;97.90
23703;DHT22;12030;50.376;8.762;2023-07-13T06:35:04;19.90;97.40
23703;DHT22;12030;50.376;8.762;2023-07-13T06:37:29;19.90;96.50
23703;DHT22;12030;50.376;8.762;2023-07-13T06:39:55;20.00;96.10
23703;DHT22;12030;50.376;8.762;2023-07-13T06:42:20;20.00;96.10
23703;DHT22;12030;50.376;8.762;2023-07-13T06:44:46;20.10;96.40
23703;DHT22;12030;50.376;8.762;2023-07-13T06:47:12;20.20;96.20
23703;DHT22;12030;50.376;8.762;2023-07-13T06:49:37;20.20;95.50
23703;DHT22;12030;50.376;8.762;2023-07-13T06:52:03;20.30;95.80
23703;DHT22;12030;50.376;8.762;2023-07-13T06:54:29;20.30;95.00
23703;DHT22;12030;50.376;8.762;2023-07-13T06:56:54;20.40;95.80
23703;DHT22;12030;50.376;8.762;2023-07-13T06:59:20;20.50;95.20
23703;DHT22;12030;50.376;8.762;2023-07-13T07:01:46;20.50;94.90
23703;DHT22;12030;50.376;8.762;2023-07-13T07:04:11;20.60;94.80
23703;DHT22;12030;50.376;8.762;2023-07-13T07:06:37;20.70;94.90
23703;DHT22;12030;50.376;8.762;2023-07-13T07:09:02;20.70;94.70
23703;DHT22;12030;50.376;8.762;2023-07-13T07:11:28;20.80;94.50
23703;DHT22;12030;50.376;8.762;2023-07-13T07:13:54;20.80;94.10
23703;DHT22;12030;50.376;8.762;2023-07-13T07:16:20;21.00;94.10
23703;DHT22;12030;50.376;8.762;2023-07-13T07:18:46;21.10;94.00
23703;DHT22;12030;50.376;8.762;2023-07-13T07:21:13;21.20;93.90
23703;DHT22;12030;50.376;8.762;2023-07-13T07:23:39;21.20;93.40
23703;DHT22;12030;50.376;8.762;2023-07-13T07:26:05;21.20;93.50
23703;DHT22;12030;50.376;8.762;2023-07-13T07:28:32;21.50;93.90
23703;DHT22;12030;50.376;8.762;2023-07-13T07:30:58;21.60;93.60
23703;DHT22;12030;50.376;8.762;2023-07-13T07:33:25;21.70;93.20
23703;DHT22;12030;50.376;8.762;2023-07-13T07:35:51;21.70;92.60
23703;DHT22;12030;50.376;8.762;2023-07-13T07:38:16;21.80;92.30
23703;DHT22;12030;50.376;8.762;2023-07-13T07:40:42;21.90;92.30
23703;DHT22;12030;50.376;8.762;2023-07-13T07:43:10;21.90;92.00
23703;DHT22;12030;50.376;8.762;2023-07-13T07:45:36;21.90;91.80
23703;DHT22;12030;50.376;8.762;2023-07-13T07:48:03;21.90;91.70
23703;DHT22;12030;50.376;8.762;2023-07-13T07:50:30;21.90;91.40
23703;DHT22;12030;50.376;8.762;2023-07-13T07:52:56;21.90;91.00
23703;DHT22;12030;50.376;8.762;2023-07-13T07:55:22;22.00;91.30
23703;DHT22;12030;50.376;8.762;2023-07-13T07:57:48;22.30;91.40
23703;DHT22;12030;50.376;8.762;2023-07-13T08:00:15;22.50;91.40
23703;DHT22;12030;50.376;8.762;2023-07-13T08:02:40;22.70;91.30
23703;DHT22;12030;50.376;8.762;2023-07-13T08:05:07;22.90;89.70
23703;DHT22;12030;50.376;8.762;2023-07-13T08:07:33;22.90;90.00
23703;DHT22;12030;50.376;8.762;2023-07-13T08:09:59;22.90;89.50
23703;DHT22;12030;50.376;8.762;2023-07-13T08:12:24;23.00;88.40
23703;DHT22;12030;50.376;8.762;2023-07-13T08:14:50;23.30;89.30
23703;DHT22;12030;50.376;8.762;2023-07-13T08:17:21;23.50;88.70
23703;DHT22;12030;50.376;8.762;2023-07-13T08:19:47;23.60;87.70
23703;DHT22;12030;50.376;8.762;2023-07-13T08:22:13;23.70;86.90
23703;DHT22;12030;50.376;8.762;2023-07-13T08:24:38;23.70;85.80
23703;DHT22;12030;50.376;8.762;2023-07-13T08:27:04;23.60;85.90
23703;DHT22;12030;50.376;8.762;2023-07-13T08:29:29;23.80;86.20
23703;DHT22;12030;50.376;8.762;2023-07-13T08:31:57;23.80;86.50
23703;DHT22;12030;50.376;8.762;2023-07-13T08:34:23;23.70;84.60
23703;DHT22;12030;50.376;8.762;2023-07-13T08:36:48;23.50;83.40
23703;DHT22;12030;50.376;8.762;2023-07-13T08:39:14;23.30;82.60
23703;DHT22;12030;50.376;8.762;2023-07-13T08:41:39;23.20;81.50
23703;DHT22;12030;50.376;8.762;2023-07-13T08:44:16;23.10;81.40
23703;DHT22;12030;50.376;8.762;2023-07-13T08:46:45;23.20;81.60
23703;DHT22;12030;50.376;8.762;2023-07-13T08:49:15;23.10;81.50
23703;DHT22;12030;50.376;8.762;2023-07-13T08:52:01;23.10;81.50
23703;DHT22;12030;50.376;8.762;2023-07-13T08:54:40;23.00;81.80
23703;DHT22;12030;50.376;8.762;2023-07-13T08:57:15;23.10;83.10
23703;DHT22;12030;50.376;8.762;2023-07-13T08:59:42;23.30;81.70
23703;DHT22;12030;50.376;8.762;2023-07-13T09:03:15;23.40;81.60
23703;DHT22;12030;50.376;8.762;2023-07-13T09:05:21;23.50;80.90
23703;DHT22;12030;50.376;8.762;2023-07-13T09:11:09;23.50;79.40
23703;DHT22;12030;50.376;8.762;2023-07-13T09:16:20;23.90;79.80
23703;DHT22;12030;50.376;8.762;2023-07-13T09:18:51;24.20;79.20
23703;DHT22;12030;50.376;8.762;2023-07-13T09:21:23;24.30;79.00
23703;DHT22;12030;50.376;8.762;2023-07-13T09:23:54;24.30;79.40
23703;DHT22;12030;50.376;8.762;2023-07-13T09:26:23;24.40;78.60
23703;DHT22;12030;50.376;8.762;2023-07-13T09:29:10;24.40;78.00
23703;DHT22;12030;50.376;8.762;2023-07-13T09:31:39;24.40;76.70
23703;DHT22;12030;50.376;8.762;2023-07-13T09:34:10;24.30;75.60
23703;DHT22;12030;50.376;8.762;2023-07-13T09:36:36;24.20;75.20
23703;DHT22;12030;50.376;8.762;2023-07-13T09:44:13;24.20;73.90
23703;DHT22;12030;50.376;8.762;2023-07-13T09:46:45;24.30;75.00
23703;DHT22;12030;50.376;8.762;2023-07-13T09:49:11;24.40;76.20
23703;DHT22;12030;50.376;8.762;2023-07-13T09:51:46;24.50;74.10
23703;DHT22;12030;50.376;8.762;2023-07-13T09:54:24;24.50;73.70
23703;DHT22;12030;50.376;8.762;2023-07-13T09:56:57;24.60;73.80
23703;DHT22;12030;50.376;8.762;2023-07-13T09:59:27;24.60;73.70
23703;DHT22;12030;50.376;8.762;2023-07-13T10:01:54;24.70;73.50
23703;DHT22;12030;50.376;8.762;2023-07-13T10:04:26;24.70;73.00
23703;DHT22;12030;50.376;8.762;2023-07-13T10:07:08;24.80;73.30
23703;DHT22;12030;50.376;8.762;2023-07-13T10:09:34;24.80;72.70
23703;DHT22;12030;50.376;8.762;2023-07-13T10:11:59;24.70;73.00
23703;DHT22;12030;50.376;8.762;2023-07-13T10:14:25;24.80;75.00
23703;DHT22;12030;50.376;8.762;2023-07-13T10:16:58;25.00;73.70
23703;DHT22;12030;50.376;8.762;2023-07-13T10:19:31;25.30;73.60
23703;DHT22;12030;50.376;8.762;2023-07-13T10:22:07;25.30;71.60
23703;DHT22;12030;50.376;8.762;2023-07-13T10:24:39;25.30;71.60
23703;DHT22;12030;50.376;8.762;2023-07-13T10:27:18;25.30;70.90
23703;DHT22;12030;50.376;8.762;2023-07-13T10:29:48;25.20;70.10
23703;DHT22;12030;50.376;8.762;2023-07-13T10:32:15;25.20;71.70
23703;DHT22;12030;50.376;8.762;2023-07-13T10:34:44;25.30;72.40
23703;DHT22;12030;50.376;8.762;2023-07-13T10:37:23;25.50;70.50
23703;DHT22;12030;50.376;8.762;2023-07-13T10:39:51;25.80;69.90
23703;DHT22;12030;50.376;8.762;2023-07-13T10:42:35;26.00;70.10
23703;DHT22;12030;50.376;8.762;2023-07-13T10:45:21;25.90;68.00
23703;DHT22;12030;50.376;8.762;2023-07-13T10:47:48;25.80;68.60
23703;DHT22;12030;50.376;8.762;2023-07-13T10:50:21;26.00;70.30
23703;DHT22;12030;50.376;8.762;2023-07-13T10:52:50;26.10;68.80
23703;DHT22;12030;50.376;8.762;2023-07-13T10:55:36;26.10;68.00
23703;DHT22;12030;50.376;8.762;2023-07-13T10:58:23;25.90;67.70
23703;DHT22;12030;50.376;8.762;2023-07-13T11:03:30;25.50;67.20
23703;DHT22;12030;50.376;8.762;2023-07-13T11:08:37;25.70;69.50
23703;DHT22;12030;50.376;8.762;2023-07-13T11:11:03;26.00;67.10
23703;DHT22;12030;50.376;8.762;2023-07-13T11:18:51;26.60;63.20
23703;DHT22;12030;50.376;8.762;2023-07-13T11:21:26;26.70;64.90
23703;DHT22;12030;50.376;8.762;2023-07-13T11:24:03;27.00;63.30
23703;DHT22;12030;50.376;8.762;2023-07-13T11:26:50;27.00;62.00
23703;DHT22;12030;50.376;8.762;2023-07-13T11:32:01;27.20;63.40
23703;DHT22;12030;50.376;8.762;2023-07-13T11:34:46;27.40;62.60
23703;DHT22;12030;50.376;8.762;2023-07-13T11:37:15;27.30;62.70
23703;DHT22;12030;50.376;8.762;2023-07-13T11:39:42;27.00;63.20
23703;DHT22;12030;50.376;8.762;2023-07-13T11:42:13;28.40;65.70
23703;DHT22;12030;50.376;8.762;2023-07-13T11:44:46;26.60;63.70
23703;DHT22;12030;50.376;8.762;2023-07-13T11:47:18;26.90;65.90
23703;DHT22;12030;50.376;8.762;2023-07-13T11:49:49;26.80;64.30
23703;DHT22;12030;50.376;8.762;2023-07-13T11:52:19;26.60;64.90
23703;DHT22;12030;50.376;8.762;2023-07-13T11:54:56;26.30;65.00
23703;DHT22;12030;50.376;8.762;2023-07-13T11:59:50;26.70;65.30
23703;DHT22;12030;50.376;8.762;2023-07-13T12:02:23;26.80;64.60
23703;DHT22;12030;50.376;8.762;2023-07-13T12:04:51;27.30;64.00
23703;DHT22;12030;50.376;8.762;2023-07-13T12:07:18;27.40;62.70
23703;DHT22;12030;50.376;8.762;2023-07-13T12:09:45;27.30;61.30
23703;DHT22;12030;50.376;8.762;2023-07-13T12:12:16;26.90;64.40
23703;DHT22;12030;50.376;8.762;2023-07-13T12:14:43;26.60;66.30
23703;DHT22;12030;50.376;8.762;2023-07-13T12:17:21;26.30;66.20
23703;DHT22;12030;50.376;8.762;2023-07-13T12:19:51;25.90;67.10
23703;DHT22;12030;50.376;8.762;2023-07-13T12:22:19;25.70;68.20
23703;DHT22;12030;50.376;8.762;2023-07-13T12:24:46;26.20;69.60
23703;DHT22;12030;50.376;8.762;2023-07-13T12:27:27;26.50;66.30
23703;DHT22;12030;50.376;8.762;2023-07-13T12:30:23;26.90;67.10
23703;DHT22;12030;50.376;8.762;2023-07-13T12:33:01;26.60;66.20
23703;DHT22;12030;50.376;8.762;2023-07-13T12:35:30;26.50;65.70
23703;DHT22;12030;50.376;8.762;2023-07-13T12:37:58;26.50;65.90
23703;DHT22;12030;50.376;8.762;2023-07-13T12:40:33;26.50;65.80
23703;DHT22;12030;50.376;8.762;2023-07-13T12:43:00;26.50;66.60
23703;DHT22;12030;50.376;8.762;2023-07-13T12:45:30;26.50;66.30
23703;DHT22;12030;50.376;8.762;2023-07-13T12:47:58;26.50;65.60
23703;DHT22;12030;50.376;8.762;2023-07-13T12:50:30;26.50;63.70
23703;DHT22;12030;50.376;8.762;2023-07-13T12:53:09;26.50;63.30
23703;DHT22;12030;50.376;8.762;2023-07-13T12:55:53;26.80;64.20
23703;DHT22;12030;50.376;8.762;2023-07-13T12:58:26;26.80;63.90
23703;DHT22;12030;50.376;8.762;2023-07-13T13:00:55;26.80;64.80
23703;DHT22;12030;50.376;8.762;2023-07-13T13:03:37;26.70;63.50
23703;DHT22;12030;50.376;8.762;2023-07-13T13:06:18;26.70;64.40
23703;DHT22;12030;50.376;8.762;2023-07-13T13:08:46;27.30;63.70
23703;DHT22;12030;50.376;8.762;2023-07-13T13:11:14;27.20;63.30
23703;DHT22;12030;50.376;8.762;2023-07-13T13:13:42;27.00;62.70
23703;DHT22;12030;50.376;8.762;2023-07-13T13:16:21;26.90;63.30
23703;DHT22;12030;50.376;8.762;2023-07-13T13:18:52;26.50;63.10
23703;DHT22;12030;50.376;8.762;2023-07-13T13:21:18;26.30;64.40
23703;DHT22;12030;50.376;8.762;2023-07-13T13:23:45;26.20;63.80
23703;DHT22;12030;50.376;8.762;2023-07-13T13:26:13;26.50;64.70
23703;DHT22;12030;50.376;8.762;2023-07-13T13:28:41;26.30;62.80
23703;DHT22;12030;50.376;8.762;2023-07-13T13:31:08;26.40;64.00
23703;DHT22;12030;50.376;8.762;2023-07-13T13:33:38;26.30;64.70
23703;DHT22;12030;50.376;8.762;2023-07-13T13:36:13;26.40;64.20
23703;DHT22;12030;50.376;8.762;2023-07-13T13:38:38;26.40;63.70
23703;DHT22;12030;50.376;8.762;2023-07-13T13:41:05;26.20;62.70
23703;DHT22;12030;50.376;8.762;2023-07-13T13:43:31;26.20;63.00
23703;DHT22;12030;50.376;8.762;2023-07-13T13:45:58;26.00;63.10
23703;DHT22;12030;50.376;8.762;2023-07-13T13:48:33;25.90;62.60
23703;DHT22;12030;50.376;8.762;2023-07-13T13:51:00;25.80;63.80
23703;DHT22;12030;50.376;8.762;2023-07-13T13:53:27;25.80;64.40
23703;DHT22;12030;50.376;8.762;2023-07-13T13:55:52;25.80;64.40
23703;DHT22;12030;50.376;8.762;2023-07-13T13:58:21;25.80;65.60
23703;DHT22;12030;50.376;8.762;2023-07-13T14:00:47;25.80;65.80
23703;DHT22;12030;50.376;8.762;2023-07-13T14:03:18;25.80;65.90
23703;DHT22;12030;50.376;8.762;2023-07-13T14:05:44;26.10;66.60
23703;DHT22;12030;50.376;8.762;2023-07-13T14:08:18;25.80;66.30
23703;DHT22;12030;50.376;8.762;2023-07-13T14:10:46;25.70;66.20
23703;DHT22;12030;50.376;8.762;2023-07-13T14:13:25;25.60;66.10
23703;DHT22;12030;50.376;8.762;2023-07-13T14:15:53;25.70;67.30
23703;DHT22;12030;50.376;8.762;2023-07-13T14:18:18;25.60;66.40
23703;DHT22;12030;50.376;8.762;2023-07-13T14:20:46;25.70;68.60
23703;DHT22;12030;50.376;8.762;2023-07-13T14:23:13;25.60;66.10
23703;DHT22;12030;50.376;8.762;2023-07-13T14:25:39;25.60;67.20
23703;DHT22;12030;50.376;8.762;2023-07-13T14:28:19;25.60;67.50
23703;DHT22;12030;50.376;8.762;2023-07-13T14:30:46;25.60;67.60
23703;DHT22;12030;50.376;8.762;2023-07-13T14:33:13;25.60;66.40
23703;DHT22;12030;50.376;8.762;2023-07-13T14:35:39;25.60;66.40
23703;DHT22;12030;50.376;8.762;2023-07-13T14:38:05;25.40;66.00
23703;DHT22;12030;50.376;8.762;2023-07-13T14:40:33;25.40;65.90
23703;DHT22;12030;50.376;8.762;2023-07-13T14:43:00;25.30;66.00
23703;DHT22;12030;50.376;8.762;2023-07-13T14:45:25;25.30;67.40
23703;DHT22;12030;50.376;8.762;2023-07-13T14:47:51;25.40;67.00
23703;DHT22;12030;50.376;8.762;2023-07-13T14:50:27;25.30;66.20
23703;DHT22;12030;50.376;8.762;2023-07-13T14:52:55;25.30;65.20
23703;DHT22;12030;50.376;8.762;2023-07-13T14:55:20;25.30;65.90
23703;DHT22;12030;50.376;8.762;2023-07-13T14:57:47;25.30;65.00
23703;DHT22;12030;50.376;8.762;2023-07-13T15:00:21;25.30;65.80
23703;DHT22;12030;50.376;8.762;2023-07-13T15:02:51;25.30;65.40
23703;DHT22;12030;50.376;8.762;2023-07-13T15:05:24;25.20;64.80
23703;DHT22;12030;50.376;8.762;2023-07-13T15:07:51;25.10;64.90
23703;DHT22;12030;50.376;8.762;2023-07-13T15:10:21;25.10;65.30
23703;DHT22;12030;50.376;8.762;2023-07-13T15:12:47;25.10;65.40
23703;DHT22;12030;50.376;8.762;2023-07-13T15:15:14;25.10;66.10
23703;DHT22;12030;50.376;8.762;2023-07-13T15:17:41;25.10;66.10
23703;DHT22;12030;50.376;8.762;2023-07-13T15:20:29;25.10;65.70
23703;DHT22;12030;50.376;8.762;2023-07-13T15:22:55;25.20;65.80
23703;DHT22;12030;50.376;8.762;2023-07-13T15:25:24;25.30;65.80
23703;DHT22;12030;50.376;8.762;2023-07-13T15:27:50;25.50;66.00
23703;DHT22;12030;50.376;8.762;2023-07-13T15:30:16;25.90;65.90
23703;DHT22;12030;50.376;8.762;2023-07-13T15:32:43;25.90;65.30
23703;DHT22;12030;50.376;8.762;2023-07-13T15:35:20;26.00;65.40
23703;DHT22;12030;50.376;8.762;2023-07-13T15:37:47;26.00;65.40
23703;DHT22;12030;50.376;8.762;2023-07-13T15:40:14;26.10;65.50
23703;DHT22;12030;50.376;8.762;2023-07-13T15:42:41;26.10;65.50
23703;DHT22;12030;50.376;8.762;2023-07-13T15:45:18;26.10;65.80
23703;DHT22;12030;50.376;8.762;2023-07-13T15:47:46;25.90;66.40
23703;DHT22;12030;50.376;8.762;2023-07-13T15:50:22;25.90;66.40
23703;DHT22;12030;50.376;8.762;2023-07-13T15:52:51;25.90;67.50
23703;DHT22;12030;50.376;8.762;2023-07-13T15:55:17;25.60;66.20
23703;DHT22;12030;50.376;8.762;2023-07-13T15:57:47;25.70;66.60
23703;DHT22;12030;50.376;8.762;2023-07-13T16:00:18;25.90;66.40
23703;DHT22;12030;50.376;8.762;2023-07-13T16:02:45;26.40;66.80
23703;DHT22;12030;50.376;8.762;2023-07-13T16:05:11;26.80;64.20
23703;DHT22;12030;50.376;8.762;2023-07-13T16:07:37;26.90;63.60
23703;DHT22;12030;50.376;8.762;2023-07-13T16:10:03;27.10;63.90